sensor_id;sensor_type;location;lat;lon;timestamp;temperature;humidity
30764;DHT22;17497;51.476;7.770;2023-04-24T00:00:38;10.90;99.90
30764;DHT22;17497;51.476;7.770;2023-04-24T00:03:07;11.00;99.90
30764;DHT22;17497;51.476;7.770;2023-04-24T00:05:34;11.00;99.90
30764;DHT22;17497;51.476;7.770;2023-04-24T00:08:01;11.00;99.90
30764;DHT22;17497;51.476;7.770;2023-04-24T00:10:27;11.00;99.90
30764;DHT22;17497;51.476;7.770;2023-04-24T00:12:54;11.00;99.90
30764;DHT22;17497;51.476;7.770;2023-04-24T00:15:21;10.90;99.90
30764;DHT22;17497;51.476;7.770;2023-04-24T00:17:47;10.80;99.90
30764;DHT22;17497;51.476;7.770;2023-04-24T00:20:14;10.70;99.90
30764;DHT22;17497;51.476;7.770;2023-04-24T00:22:41;10.60;99.90
30764;DHT22;17497;51.476;7.770;2023-04-24T00:25:07;10.60;99.90
30764;DHT22;17497;51.476;7.770;2023-04-24T00:27:34;10.50;99.90
30764;DHT22;17497;51.476;7.770;2023-04-24T00:30:03;10.50;99.90
30764;DHT22;17497;51.476;7.770;2023-04-24T00:32:30;10.50;99.90
30764;DHT22;17497;51.476;7.770;2023-04-24T00:34:57;10.50;99.90
30764;DHT22;17497;51.476;7.770;2023-04-24T00:37:23;10.40;99.90
30764;DHT22;17497;51.476;7.770;2023-04-24T00:39:50;10.40;99.90
30764;DHT22;17497;51.476;7.770;2023-04-24T00:42:16;10.40;99.90
30764;DHT22;17497;51.476;7.770;2023-04-24T00:44:43;10.30;99.90
30764;DHT22;17497;51.476;7.770;2023-04-24T00:47:10;10.30;99.90
30764;DHT22;17497;51.476;7.770;2023-04-24T00:49:37;10.30;99.90
30764;DHT22;17497;51.476;7.770;2023-04-24T00:52:04;10.30;99.90
30764;DHT22;17497;51.476;7.770;2023-04-24T00:54:34;10.30;99.90
30764;DHT22;17497;51.476;7.770;2023-04-24T00:57:02;10.30;99.90
30764;DHT22;17497;51.476;7.770;2023-04-24T00:59:30;10.30;99.90
30764;DHT22;17497;51.476;7.770;2023-04-24T01:01:57;10.30;99.90
30764;DHT22;17497;51.476;7.770;2023-04-24T01:04:23;10.30;99.90
30764;DHT22;17497;51.476;7.770;2023-04-24T01:06:50;10.30;99.90
30764;DHT22;17497;51.476;7.770;2023-04-24T01:09:19;10.40;99.90
30764;DHT22;17497;51.476;7.770;2023-04-24T01:11:47;10.40;99.90
30764;DHT22;17497;51.476;7.770;2023-04-24T01:14:14;10.40;99.90
30764;DHT22;17497;51.476;7.770;2023-04-24T01:16:41;10.40;99.90
30764;DHT22;17497;51.476;7.770;2023-04-24T01:19:08;10.50;99.90
30764;DHT22;17497;51.476;7.770;2023-04-24T01:21:36;10.50;99.90
30764;DHT22;17497;51.476;7.770;2023-04-24T01:24:04;10.50;99.90
30764;DHT22;17497;51.476;7.770;2023-04-24T01:26:31;10.50;99.90
30764;DHT22;17497;51.476;7.770;2023-04-24T01:28:58;10.60;99.90
30764;DHT22;17497;51.476;7.770;2023-04-24T01:31:25;10.50;99.90
30764;DHT22;17497;51.476;7.770;2023-04-24T01:33:51;10.50;99.90
30764;DHT22;17497;51.476;7.770;2023-04-24T01:36:18;10.50;99.90
30764;DHT22;17497;51.476;7.770;2023-04-24T01:38:45;10.40;99.90
30764;DHT22;17497;51.476;7.770;2023-04-24T01:41:12;10.40;99.90
30764;DHT22;17497;51.476;7.770;2023-04-24T01:43:38;10.40;99.90
30764;DHT22;17497;51.476;7.770;2023-04-24T01:46:06;10.40;99.90
30764;DHT22;17497;51.476;7.770;2023-04-24T01:48:33;10.40;99.90
30764;DHT22;17497;51.476;7.770;2023-04-24T01:50:59;10.50;99.90
30764;DHT22;17497;51.476;7.770;2023-04-24T01:53:26;10.50;99.90
30764;DHT22;17497;51.476;7.770;2023-04-24T01:55:53;10.50;99.90
30764;DHT22;17497;51.476;7.770;2023-04-24T01:58:19;10.50;99.90
30764;DHT22;17497;51.476;7.770;2023-04-24T02:00:46;10.60;99.90
30764;DHT22;17497;51.476;7.770;2023-04-24T02:03:13;10.50;99.90
30764;DHT22;17497;51.476;7.770;2023-04-24T02:05:39;10.50;99.90
30764;DHT22;17497;51.476;7.770;2023-04-24T02:08:06;10.60;99.90
30764;DHT22;17497;51.476;7.770;2023-04-24T02:10:33;10.70;99.90
30764;DHT22;17497;51.476;7.770;2023-04-24T02:12:59;10.50;99.90
30764;DHT22;17497;51.476;7.770;2023-04-24T02:15:27;10.50;99.90
30764;DHT22;17497;51.476;7.770;2023-04-24T02:17:53;10.60;99.90
30764;DHT22;17497;51.476;7.770;2023-04-24T02:20:20;10.40;99.90
30764;DHT22;17497;51.476;7.770;2023-04-24T02:22:46;10.40;99.90
30764;DHT22;17497;51.476;7.770;2023-04-24T02:25:13;10.40;99.90
30764;DHT22;17497;51.476;7.770;2023-04-24T02:27:40;10.30;99.90
30764;DHT22;17497;51.476;7.770;2023-04-24T02:30:06;10.30;99.90
30764;DHT22;17497;51.476;7.770;2023-04-24T02:32:33;10.30;99.90
30764;DHT22;17497;51.476;7.770;2023-04-24T02:35:00;10.40;99.90
30764;DHT22;17497;51.476;7.770;2023-04-24T02:37:27;10.30;99.90
30764;DHT22;17497;51.476;7.770;2023-04-24T02:39:53;10.20;99.90
30764;DHT22;17497;51.476;7.770;2023-04-24T02:42:20;10.10;99.90
30764;DHT22;17497;51.476;7.770;2023-04-24T02:44:47;10.00;99.90
30764;DHT22;17497;51.476;7.770;2023-04-24T02:47:13;9.80;99.90
30764;DHT22;17497;51.476;7.770;2023-04-24T02:49:40;9.70;99.90
30764;DHT22;17497;51.476;7.770;2023-04-24T02:52:07;9.70;99.90
30764;DHT22;17497;51.476;7.770;2023-04-24T02:54:35;9.60;99.90
30764;DHT22;17497;51.476;7.770;2023-04-24T02:57:02;9.60;99.90
30764;DHT22;17497;51.476;7.770;2023-04-24T02:59:29;9.60;99.90
30764;DHT22;17497;51.476;7.770;2023-04-24T03:01:55;9.60;99.90
30764;DHT22;17497;51.476;7.770;2023-04-24T03:04:22;9.60;99.90
30764;DHT22;17497;51.476;7.770;2023-04-24T03:06:49;9.50;99.90
30764;DHT22;17497;51.476;7.770;2023-04-24T03:09:19;9.50;99.90
30764;DHT22;17497;51.476;7.770;2023-04-24T03:11:45;9.50;99.90
30764;DHT22;17497;51.476;7.770;2023-04-24T03:14:12;9.60;99.90
30764;DHT22;17497;51.476;7.770;2023-04-24T03:16:39;9.50;99.90
30764;DHT22;17497;51.476;7.770;2023-04-24T03:19:06;9.50;99.90
30764;DHT22;17497;51.476;7.770;2023-04-24T03:21:33;9.50;99.90
30764;DHT22;17497;51.476;7.770;2023-04-24T03:23:59;9.50;99.90
30764;DHT22;17497;51.476;7.770;2023-04-24T03:26:26;9.40;99.90
30764;DHT22;17497;51.476;7.770;2023-04-24T03:28:52;9.40;99.90
30764;DHT22;17497;51.476;7.770;2023-04-24T03:31:19;9.40;99.90
30764;DHT22;17497;51.476;7.770;2023-04-24T03:33:47;9.30;99.90
30764;DHT22;17497;51.476;7.770;2023-04-24T03:36:14;9.30;99.90
30764;DHT22;17497;51.476;7.770;2023-04-24T03:38:40;9.30;99.90
30764;DHT22;17497;51.476;7.770;2023-04-24T03:41:07;9.30;99.90
30764;DHT22;17497;51.476;7.770;2023-04-24T03:43:33;9.30;99.90
30764;DHT22;17497;51.476;7.770;2023-04-24T03:46:01;9.10;99.90
30764;DHT22;17497;51.476;7.770;2023-04-24T03:48:27;9.10;99.90
30764;DHT22;17497;51.476;7.770;2023-04-24T03:50:54;9.10;99.90
30764;DHT22;17497;51.476;7.770;2023-04-24T03:53:20;9.00;99.90
30764;DHT22;17497;51.476;7.770;2023-04-24T03:55:47;8.90;99.90
30764;DHT22;17497;51.476;7.770;2023-04-24T03:58:14;8.90;99.90
30764;DHT22;17497;51.476;7.770;2023-04-24T04:00:40;8.90;99.90
30764;DHT22;17497;51.476;7.770;2023-04-24T04:03:07;8.90;99.90
30764;DHT22;17497;51.476;7.770;2023-04-24T04:05:34;8.90;99.90
30764;DHT22;17497;51.476;7.770;2023-04-24T04:08:00;8.90;99.90
30764;DHT22;17497;51.476;7.770;2023-04-24T04:10:27;8.90;99.90
30764;DHT22;17497;51.476;7.770;2023-04-24T04:12:54;8.80;99.90
30764;DHT22;17497;51.476;7.770;2023-04-24T04:15:20;8.80;99.90
30764;DHT22;17497;51.476;7.770;2023-04-24T04:17:47;8.90;99.90
30764;DHT22;17497;51.476;7.770;2023-04-24T04:20:14;8.90;99.90
30764;DHT22;17497;51.476;7.770;2023-04-24T04:22:40;8.90;99.90
30764;DHT22;17497;51.476;7.770;2023-04-24T04:25:09;9.00;99.90
30764;DHT22;17497;51.476;7.770;2023-04-24T04:27:37;9.00;99.90
30764;DHT22;17497;51.476;7.770;2023-04-24T04:30:05;9.00;99.90
30764;DHT22;17497;51.476;7.770;2023-04-24T04:32:32;9.10;99.90
30764;DHT22;17497;51.476;7.770;2023-04-24T04:35:00;9.10;99.90
30764;DHT22;17497;51.476;7.770;2023-04-24T04:37:30;9.10;99.90
30764;DHT22;17497;51.476;7.770;2023-04-24T04:39:58;9.10;99.90
30764;DHT22;17497;51.476;7.770;2023-04-24T04:42:24;9.10;99.90
30764;DHT22;17497;51.476;7.770;2023-04-24T04:44:51;9.10;99.90
30764;DHT22;17497;51.476;7.770;2023-04-24T04:47:18;9.00;99.90
30764;DHT22;17497;51.476;7.770;2023-04-24T04:49:48;8.90;99.90
30764;DHT22;17497;51.476;7.770;2023-04-24T04:52:14;8.80;99.90
30764;DHT22;17497;51.476;7.770;2023-04-24T04:54:43;8.80;99.90
30764;DHT22;17497;51.476;7.770;2023-04-24T04:57:10;8.90;99.90
30764;DHT22;17497;51.476;7.770;2023-04-24T04:59:36;8.90;99.90
30764;DHT22;17497;51.476;7.770;2023-04-24T05:02:03;8.90;99.90
30764;DHT22;17497;51.476;7.770;2023-04-24T05:04:30;9.10;99.90
30764;DHT22;17497;51.476;7.770;2023-04-24T05:06:57;9.20;99.90
30764;DHT22;17497;51.476;7.770;2023-04-24T05:09:24;9.20;99.90
30764;DHT22;17497;51.476;7.770;2023-04-24T05:11:53;9.30;99.90
30764;DHT22;17497;51.476;7.770;2023-04-24T05:14:20;9.40;99.90
30764;DHT22;17497;51.476;7.770;2023-04-24T05:16:47;9.30;99.90
30764;DHT22;17497;51.476;7.770;2023-04-24T05:19:14;9.30;99.90
30764;DHT22;17497;51.476;7.770;2023-04-24T05:21:41;9.30;99.90
30764;DHT22;17497;51.476;7.770;2023-04-24T05:24:07;9.30;99.90
30764;DHT22;17497;51.476;7.770;2023-04-24T05:26:34;9.30;99.90
30764;DHT22;17497;51.476;7.770;2023-04-24T05:29:02;9.30;99.90
30764;DHT22;17497;51.476;7.770;2023-04-24T05:31:29;9.30;99.90
30764;DHT22;17497;51.476;7.770;2023-04-24T05:33:55;9.30;99.90
30764;DHT22;17497;51.476;7.770;2023-04-24T05:36:22;9.20;99.90
30764;DHT22;17497;51.476;7.770;2023-04-24T05:38:48;9.20;99.90
30764;DHT22;17497;51.476;7.770;2023-04-24T05:41:18;9.30;99.90
30764;DHT22;17497;51.476;7.770;2023-04-24T05:43:45;9.30;99.90
30764;DHT22;17497;51.476;7.770;2023-04-24T05:46:12;9.30;99.90
30764;DHT22;17497;51.476;7.770;2023-04-24T05:48:38;9.20;99.90
30764;DHT22;17497;51.476;7.770;2023-04-24T05:51:05;9.20;99.90
30764;DHT22;17497;51.476;7.770;2023-04-24T05:53:32;9.20;99.90
30764;DHT22;17497;51.476;7.770;2023-04-24T05:55:58;9.30;99.90
30764;DHT22;17497;51.476;7.770;2023-04-24T05:58:25;9.30;99.90
30764;DHT22;17497;51.476;7.770;2023-04-24T06:00:52;9.30;99.90
30764;DHT22;17497;51.476;7.770;2023-04-24T06:03:18;9.40;99.90
30764;DHT22;17497;51.476;7.770;2023-04-24T06:05:45;9.40;99.90
30764;DHT22;17497;51.476;7.770;2023-04-24T06:08:12;9.30;99.90
30764;DHT22;17497;51.476;7.770;2023-04-24T06:10:38;9.40;99.90
30764;DHT22;17497;51.476;7.770;2023-04-24T06:13:05;9.30;99.90
30764;DHT22;17497;51.476;7.770;2023-04-24T06:15:33;9.40;99.90
30764;DHT22;17497;51.476;7.770;2023-04-24T06:17:59;9.40;99.90
30764;DHT22;17497;51.476;7.770;2023-04-24T06:20:26;9.40;99.90
30764;DHT22;17497;51.476;7.770;2023-04-24T06:22:53;9.30;99.90
30764;DHT22;17497;51.476;7.770;2023-04-24T06:25:20;9.40;99.90
30764;DHT22;17497;51.476;7.770;2023-04-24T06:27:46;9.30;99.90
30764;DHT22;17497;51.476;7.770;2023-04-24T06:30:13;9.40;99.90
30764;DHT22;17497;51.476;7.770;2023-04-24T06:32:40;9.20;99.90
30764;DHT22;17497;51.476;7.770;2023-04-24T06:35:07;9.30;99.90
30764;DHT22;17497;51.476;7.770;2023-04-24T06:37:34;9.30;99.90
30764;DHT22;17497;51.476;7.770;2023-04-24T06:40:01;9.20;99.90
30764;DHT22;17497;51.476;7.770;2023-04-24T06:42:27;9.10;99.90
30764;DHT22;17497;51.476;7.770;2023-04-24T06:44:54;9.10;99.90
30764;DHT22;17497;51.476;7.770;2023-04-24T06:47:21;9.20;99.90
30764;DHT22;17497;51.476;7.770;2023-04-24T06:49:47;9.40;99.90
30764;DHT22;17497;51.476;7.770;2023-04-24T06:52:14;9.40;99.90
30764;DHT22;17497;51.476;7.770;2023-04-24T06:54:41;9.30;99.90
30764;DHT22;17497;51.476;7.770;2023-04-24T06:57:08;9.40;99.90
30764;DHT22;17497;51.476;7.770;2023-04-24T06:59:35;9.20;99.90
30764;DHT22;17497;51.476;7.770;2023-04-24T07:02:01;9.30;99.90
30764;DHT22;17497;51.476;7.770;2023-04-24T07:04:29;9.20;99.90
30764;DHT22;17497;51.476;7.770;2023-04-24T07:06:56;9.20;99.90
30764;DHT22;17497;51.476;7.770;2023-04-24T07:09:25;9.10;99.90
30764;DHT22;17497;51.476;7.770;2023-04-24T07:11:52;9.10;99.90
30764;DHT22;17497;51.476;7.770;2023-04-24T07:14:19;9.20;99.90
30764;DHT22;17497;51.476;7.770;2023-04-24T07:16:46;9.20;99.90
30764;DHT22;17497;51.476;7.770;2023-04-24T07:19:13;9.20;99.90
30764;DHT22;17497;51.476;7.770;2023-04-24T07:21:40;9.20;99.90
30764;DHT22;17497;51.476;7.770;2023-04-24T07:24:07;9.10;99.90
30764;DHT22;17497;51.476;7.770;2023-04-24T07:26:37;9.00;99.90
30764;DHT22;17497;51.476;7.770;2023-04-24T07:29:05;8.90;99.90
30764;DHT22;17497;51.476;7.770;2023-04-24T07:31:31;9.00;99.90
30764;DHT22;17497;51.476;7.770;2023-04-24T07:33:58;9.00;99.90
30764;DHT22;17497;51.476;7.770;2023-04-24T07:36:24;9.00;99.90
30764;DHT22;17497;51.476;7.770;2023-04-24T07:38:52;9.00;99.90
30764;DHT22;17497;51.476;7.770;2023-04-24T07:41:19;9.10;99.90
30764;DHT22;17497;51.476;7.770;2023-04-24T07:43:49;9.20;99.90
30764;DHT22;17497;51.476;7.770;2023-04-24T07:46:16;9.30;99.90
30764;DHT22;17497;51.476;7.770;2023-04-24T07:48:42;9.40;99.90
30764;DHT22;17497;51.476;7.770;2023-04-24T07:51:09;9.60;99.90
30764;DHT22;17497;51.476;7.770;2023-04-24T07:53:37;9.70;99.90
30764;DHT22;17497;51.476;7.770;2023-04-24T07:56:04;9.50;99.90
30764;DHT22;17497;51.476;7.770;2023-04-24T07:58:30;9.50;99.90
30764;DHT22;17497;51.476;7.770;2023-04-24T08:00:57;9.60;99.90
30764;DHT22;17497;51.476;7.770;2023-04-24T08:03:24;9.70;99.90
30764;DHT22;17497;51.476;7.770;2023-04-24T08:05:51;9.60;99.90
30764;DHT22;17497;51.476;7.770;2023-04-24T08:08:19;9.60;99.90
30764;DHT22;17497;51.476;7.770;2023-04-24T08:10:46;9.70;99.90
30764;DHT22;17497;51.476;7.770;2023-04-24T08:13:12;9.70;99.90
30764;DHT22;17497;51.476;7.770;2023-04-24T08:15:39;9.60;99.90
30764;DHT22;17497;51.476;7.770;2023-04-24T08:18:06;9.50;99.90
30764;DHT22;17497;51.476;7.770;2023-04-24T08:20:33;9.30;99.90
30764;DHT22;17497;51.476;7.770;2023-04-24T08:22:59;9.10;99.90
30764;DHT22;17497;51.476;7.770;2023-04-24T08:25:26;9.00;99.90
30764;DHT22;17497;51.476;7.770;2023-04-24T08:27:53;9.00;99.90
30764;DHT22;17497;51.476;7.770;2023-04-24T08:30:19;9.10;99.90
30764;DHT22;17497;51.476;7.770;2023-04-24T08:32:47;9.20;99.90
30764;DHT22;17497;51.476;7.770;2023-04-24T08:35:14;9.20;99.90
30764;DHT22;17497;51.476;7.770;2023-04-24T08:37:40;9.20;99.90
30764;DHT22;17497;51.476;7.770;2023-04-24T08:40:12;9.20;99.90
30764;DHT22;17497;51.476;7.770;2023-04-24T08:42:40;9.10;99.90
30764;DHT22;17497;51.476;7.770;2023-04-24T08:45:08;9.20;99.90
30764;DHT22;17497;51.476;7.770;2023-04-24T08:47:35;9.20;99.90
30764;DHT22;17497;51.476;7.770;2023-04-24T08:50:02;9.20;99.90
30764;DHT22;17497;51.476;7.770;2023-04-24T08:52:29;9.20;99.90
30764;DHT22;17497;51.476;7.770;2023-04-24T08:54:56;9.10;99.90
30764;DHT22;17497;51.476;7.770;2023-04-24T08:57:22;9.10;99.90
30764;DHT22;17497;51.476;7.770;2023-04-24T08:59:50;9.20;99.90
30764;DHT22;17497;51.476;7.770;2023-04-24T09:02:17;8.90;99.90
30764;DHT22;17497;51.476;7.770;2023-04-24T09:04:44;8.70;99.90
30764;DHT22;17497;51.476;7.770;2023-04-24T09:07:12;8.20;99.90
30764;DHT22;17497;51.476;7.770;2023-04-24T09:09:38;8.10;99.90
30764;DHT22;17497;51.476;7.770;2023-04-24T09:12:07;8.10;99.90
30764;DHT22;17497;51.476;7.770;2023-04-24T09:14:35;8.00;99.90
30764;DHT22;17497;51.476;7.770;2023-04-24T09:17:06;8.00;99.90
30764;DHT22;17497;51.476;7.770;2023-04-24T09:19:32;8.00;99.90
30764;DHT22;17497;51.476;7.770;2023-04-24T09:21:59;8.10;99.90
30764;DHT22;17497;51.476;7.770;2023-04-24T09:24:26;8.10;99.90
30764;DHT22;17497;51.476;7.770;2023-04-24T09:26:56;8.20;99.90
30764;DHT22;17497;51.476;7.770;2023-04-24T09:29:28;8.10;99.90
30764;DHT22;17497;51.476;7.770;2023-04-24T09:31:54;8.00;99.90
30764;DHT22;17497;51.476;7.770;2023-04-24T09:34:22;7.90;99.90
30764;DHT22;17497;51.476;7.770;2023-04-24T09:36:49;7.80;99.90
30764;DHT22;17497;51.476;7.770;2023-04-24T09:39:16;7.70;99.90
30764;DHT22;17497;51.476;7.770;2023-04-24T09:41:55;7.60;99.90
30764;DHT22;17497;51.476;7.770;2023-04-24T09:44:26;7.50;99.90
30764;DHT22;17497;51.476;7.770;2023-04-24T09:46:54;7.50;99.90
30764;DHT22;17497;51.476;7.770;2023-04-24T09:49:22;7.50;99.90
30764;DHT22;17497;51.476;7.770;2023-04-24T09:51:49;7.40;99.90
30764;DHT22;17497;51.476;7.770;2023-04-24T09:54:17;7.30;99.90
30764;DHT22;17497;51.476;7.770;2023-04-24T09:56:45;7.20;99.90
30764;DHT22;17497;51.476;7.770;2023-04-24T09:59:13;7.20;99.90
30764;DHT22;17497;51.476;7.770;2023-04-24T10:01:39;7.10;99.90
30764;DHT22;17497;51.476;7.770;2023-04-24T10:04:15;7.10;99.90
30764;DHT22;17497;51.476;7.770;2023-04-24T10:06:43;7.10;99.90
30764;DHT22;17497;51.476;7.770;2023-04-24T10:09:10;7.10;99.90
30764;DHT22;17497;51.476;7.770;2023-04-24T10:11:43;7.20;99.90
30764;DHT22;17497;51.476;7.770;2023-04-24T10:14:18;7.20;99.90
30764;DHT22;17497;51.476;7.770;2023-04-24T10:16:45;7.20;99.90
30764;DHT22;17497;51.476;7.770;2023-04-24T10:19:15;7.40;99.90
30764;DHT22;17497;51.476;7.770;2023-04-24T10:21:42;7.40;99.90
30764;DHT22;17497;51.476;7.770;2023-04-24T10:24:18;7.40;99.90
30764;DHT22;17497;51.476;7.770;2023-04-24T10:26:47;7.40;99.90
30764;DHT22;17497;51.476;7.770;2023-04-24T10:29:16;7.40;99.90
30764;DHT22;17497;51.476;7.770;2023-04-24T10:31:43;7.50;99.90
30764;DHT22;17497;51.476;7.770;2023-04-24T10:34:12;7.50;99.90
30764;DHT22;17497;51.476;7.770;2023-04-24T10:36:53;7.40;99.90
30764;DHT22;17497;51.476;7.770;2023-04-24T10:39:23;7.40;99.90
30764;DHT22;17497;51.476;7.770;2023-04-24T10:41:53;7.30;99.90
30764;DHT22;17497;51.476;7.770;2023-04-24T10:44:20;7.30;99.90
30764;DHT22;17497;51.476;7.770;2023-04-24T10:46:52;7.30;99.90
30764;DHT22;17497;51.476;7.770;2023-04-24T10:49:27;7.30;99.90
30764;DHT22;17497;51.476;7.770;2023-04-24T10:51:54;7.40;99.90
30764;DHT22;17497;51.476;7.770;2023-04-24T10:56:53;7.30;99.90
30764;DHT22;17497;51.476;7.770;2023-04-24T10:59:26;7.30;99.90
30764;DHT22;17497;51.476;7.770;2023-04-24T11:01:54;7.30;99.90
30764;DHT22;17497;51.476;7.770;2023-04-24T11:04:31;7.30;99.90
30764;DHT22;17497;51.476;7.770;2023-04-24T11:06:58;7.20;99.90
30764;DHT22;17497;51.476;7.770;2023-04-24T11:09:27;7.20;99.90
30764;DHT22;17497;51.476;7.770;2023-04-24T11:17:31;7.20;99.90
30764;DHT22;17497;51.476;7.770;2023-04-24T11:20:10;7.30;99.90
30764;DHT22;17497;51.476;7.770;2023-04-24T11:22:53;7.30;99.90
30764;DHT22;17497;51.476;7.770;2023-04-24T11:25:21;7.40;99.90
30764;DHT22;17497;51.476;7.770;2023-04-24T11:27:49;7.40;99.90
30764;DHT22;17497;51.476;7.770;2023-04-24T11:30:19;7.40;99.90
30764;DHT22;17497;51.476;7.770;2023-04-24T11:32:52;7.40;99.90
30764;DHT22;17497;51.476;7.770;2023-04-24T11:35:22;7.30;99.90
30764;DHT22;17497;51.476;7.770;2023-04-24T11:37:54;7.30;99.90
30764;DHT22;17497;51.476;7.770;2023-04-24T11:40:24;7.30;99.90
30764;DHT22;17497;51.476;7.770;2023-04-24T11:42:52;7.40;99.90
30764;DHT22;17497;51.476;7.770;2023-04-24T11:45:23;7.40;99.90
30764;DHT22;17497;51.476;7.770;2023-04-24T11:47:50;7.50;99.90
30764;DHT22;17497;51.476;7.770;2023-04-24T11:50:17;7.50;99.90
30764;DHT22;17497;51.476;7.770;2023-04-24T11:52:45;7.60;99.90
30764;DHT22;17497;51.476;7.770;2023-04-24T11:57:42;7.60;99.90
30764;DHT22;17497;51.476;7.770;2023-04-24T12:02:43;7.60;99.90
30764;DHT22;17497;51.476;7.770;2023-04-24T12:05:20;7.60;99.90
30764;DHT22;17497;51.476;7.770;2023-04-24T12:07:47;7.60;99.90
30764;DHT22;17497;51.476;7.770;2023-04-24T12:10:14;7.60;99.90
30764;DHT22;17497;51.476;7.770;2023-04-24T12:12:41;7.60;99.90
30764;DHT22;17497;51.476;7.770;2023-04-24T12:15:08;7.60;99.90
30764;DHT22;17497;51.476;7.770;2023-04-24T12:17:35;7.70;99.90
30764;DHT22;17497;51.476;7.770;2023-04-24T12:20:03;7.70;99.90
30764;DHT22;17497;51.476;7.770;2023-04-24T12:22:46;7.80;99.90
30764;DHT22;17497;51.476;7.770;2023-04-24T12:25:17;7.80;99.90
30764;DHT22;17497;51.476;7.770;2023-04-24T12:27:44;7.80;99.90
30764;DHT22;17497;51.476;7.770;2023-04-24T12:30:15;7.80;99.90
30764;DHT22;17497;51.476;7.770;2023-04-24T12:32:46;7.70;99.90
30764;DHT22;17497;51.476;7.770;2023-04-24T12:35:18;7.80;99.90
30764;DHT22;17497;51.476;7.770;2023-04-24T12:37:46;7.70;99.90
30764;DHT22;17497;51.476;7.770;2023-04-24T12:40:13;7.70;99.90
30764;DHT22;17497;51.476;7.770;2023-04-24T12:42:44;7.70;99.90
30764;DHT22;17497;51.476;7.770;2023-04-24T12:45:11;7.70;99.90
30764;DHT22;17497;51.476;7.770;2023-04-24T12:47:41;7.70;99.90
30764;DHT22;17497;51.476;7.770;2023-04-24T12:50:09;7.60;99.90
30764;DHT22;17497;51.476;7.770;2023-04-24T12:52:36;7.70;99.90
30764;DHT22;17497;51.476;7.770;2023-04-24T12:55:03;7.70;99.90
30764;DHT22;17497;51.476;7.770;2023-04-24T12:57:31;7.80;99.90
30764;DHT22;17497;51.476;7.770;2023-04-24T12:59:58;8.00;99.90
30764;DHT22;17497;51.476;7.770;2023-04-24T13:02:25;8.10;99.90
30764;DHT22;17497;51.476;7.770;2023-04-24T13:04:53;8.30;99.90
30764;DHT22;17497;51.476;7.770;2023-04-24T13:07:20;8.50;99.90
30764;DHT22;17497;51.476;7.770;2023-04-24T13:09:47;9.00;99.90
30764;DHT22;17497;51.476;7.770;2023-04-24T13:12:14;9.20;99.90
30764;DHT22;17497;51.476;7.770;2023-04-24T13:14:41;9.40;99.90
30764;DHT22;17497;51.476;7.770;2023-04-24T13:17:08;9.30;99.90
30764;DHT22;17497;51.476;7.770;2023-04-24T13:19:42;9.20;99.90
30764;DHT22;17497;51.476;7.770;2023-04-24T13:22:09;9.00;99.90
30764;DHT22;17497;51.476;7.770;2023-04-24T13:24:36;8.80;99.90
30764;DHT22;17497;51.476;7.770;2023-04-24T13:27:05;8.70;99.90
30764;DHT22;17497;51.476;7.770;2023-04-24T13:29:31;8.60;99.90
30764;DHT22;17497;51.476;7.770;2023-04-24T13:31:58;8.50;99.90
30764;DHT22;17497;51.476;7.770;2023-04-24T13:34:26;8.40;99.90
30764;DHT22;17497;51.476;7.770;2023-04-24T13:36:53;8.30;99.90
30764;DHT22;17497;51.476;7.770;2023-04-24T13:39:20;8.30;99.90
30764;DHT22;17497;51.476;7.770;2023-04-24T13:41:47;8.30;99.90
30764;DHT22;17497;51.476;7.770;2023-04-24T13:44:18;8.30;99.90
30764;DHT22;17497;51.476;7.770;2023-04-24T13:46:46;8.40;99.90
30764;DHT22;17497;51.476;7.770;2023-04-24T13:49:13;8.60;99.90
30764;DHT22;17497;51.476;7.770;2023-04-24T13:51:40;8.70;99.90
30764;DHT22;17497;51.476;7.770;2023-04-24T13:54:07;8.90;99.90
30764;DHT22;17497;51.476;7.770;2023-04-24T13:56:33;9.00;99.90
30764;DHT22;17497;51.476;7.770;2023-04-24T13:59:00;9.10;99.90
30764;DHT22;17497;51.476;7.770;2023-04-24T14:01:27;9.10;99.90
30764;DHT22;17497;51.476;7.770;2023-04-24T14:03:54;9.00;99.90
30764;DHT22;17497;51.476;7.770;2023-04-24T14:06:22;9.00;99.90
30764;DHT22;17497;51.476;7.770;2023-04-24T14:08:49;9.00;99.90
30764;DHT22;17497;51.476;7.770;2023-04-24T14:11:17;9.10;99.90
30764;DHT22;17497;51.476;7.770;2023-04-24T14:13:43;9.00;99.90
30764;DHT22;17497;51.476;7.770;2023-04-24T14:16:11;9.00;99.90
30764;DHT22;17497;51.476;7.770;2023-04-24T14:18:37;9.00;99.90
30764;DHT22;17497;51.476;7.770;2023-04-24T14:21:04;9.00;99.90
30764;DHT22;17497;51.476;7.770;2023-04-24T14:23:31;9.00;99.90
30764;DHT22;17497;51.476;7.770;2023-04-24T14:25:58;9.10;99.90
30764;DHT22;17497;51.476;7.770;2023-04-24T14:28:25;9.10;99.90
30764;DHT22;17497;51.476;7.770;2023-04-24T14:30:52;9.10;99.90
30764;DHT22;17497;51.476;7.770;2023-04-24T14:33:19;9.10;99.90
30764;DHT22;17497;51.476;7.770;2023-04-24T14:35:46;9.20;99.90
30764;DHT22;17497;51.476;7.770;2023-04-24T14:38:14;9.10;99.90
30764;DHT22;17497;51.476;7.770;2023-04-24T14:40:41;9.20;99.90
30764;DHT22;17497;51.476;7.770;2023-04-24T14:43:28;9.10;99.90
30764;DHT22;17497;51.476;7.770;2023-04-24T14:45:54;9.10;99.90
30764;DHT22;17497;51.476;7.770;2023-04-24T14:48:21;9.10;99.90
30764;DHT22;17497;51.476;7.770;2023-04-24T14:50:48;9.10;99.90
30764;DHT22;17497;51.476;7.770;2023-04-24T14:53:14;9.10;99.90
30764;DHT22;17497;51.476;7.770;2023-04-24T14:55:41;9.20;99.90
30764;DHT22;17497;51.476;7.770;2023-04-24T14:58:08;9.30;99.90
30764;DHT22;17497;51.476;7.770;2023-04-24T15:00:35;9.40;99.90
30764;DHT22;17497;51.476;7.770;2023-04-24T15:03:02;9.50;99.90
30764;DHT22;17497;51.476;7.770;2023-04-24T15:05:28;9.50;99.90
30764;DHT22;17497;51.476;7.770;2023-04-24T15:07:56;9.50;99.90
30764;DHT22;17497;51.476;7.770;2023-04-24T15:10:23;9.50;99.90
30764;DHT22;17497;51.476;7.770;2023-04-24T15:12:51;9.50;99.90
30764;DHT22;17497;51.476;7.770;2023-04-24T15:15:18;9.50;99.90
30764;DHT22;17497;51.476;7.770;2023-04-24T15:17:44;9.40;99.90
30764;DHT22;17497;51.476;7.770;2023-04-24T15:20:11;9.30;99.90
30764;DHT22;17497;51.476;7.770;2023-04-24T15:22:38;9.20;99.90
30764;DHT22;17497;51.476;7.770;2023-04-24T15:25:05;9.30;99.90
30764;DHT22;17497;51.476;7.770;2023-04-24T15:27:41;9.30;99.90
30764;DHT22;17497;51.476;7.770;2023-04-24T15:30:08;9.30;99.90
30764;DHT22;17497;51.476;7.770;2023-04-24T15:32:36;9.30;99.90
30764;DHT22;17497;51.476;7.770;2023-04-24T15:35:03;9.30;99.90
30764;DHT22;17497;51.476;7.770;2023-04-24T15:37:35;9.30;99.90
30764;DHT22;17497;51.476;7.770;2023-04-24T15:40:01;9.20;99.90
30764;DHT22;17497;51.476;7.770;2023-04-24T15:42:30;9.10;99.90
30764;DHT22;17497;51.476;7.770;2023-04-24T15:44:57;9.00;99.90
30764;DHT22;17497;51.476;7.770;2023-04-24T15:47:24;8.90;99.90
30764;DHT22;17497;51.476;7.770;2023-04-24T15:49:52;8.80;99.90
30764;DHT22;17497;51.476;7.770;2023-04-24T15:52:19;8.70;99.90
30764;DHT22;17497;51.476;7.770;2023-04-24T15:54:46;8.60;99.90
30764;DHT22;17497;51.476;7.770;2023-04-24T15:57:12;8.60;99.90